Pesadilla — DK2312 — position and weather

sailwx.info

Track history (hours):
 
Tides and Currents Weather Stations Pressure Air Temp Water Temp Dewpoint Dewpoint Depression Visibility Wind Speed Wind Dir Waves Ship Positions

Pesadilla

Last reported at 2017-Sep-25 01:37 UTC. Time now 2017-Oct-18 12:56 UTC.
Position N 34°59' W 012°34'.
Warning: this ship's position is 23 days out of date.

Length 13 m.

Type: Pleasure craft. MMSI: 211392360.

Date/timePositionNaut miles runAvg speedWind from/ knotsBaromVisibWave heightAir tempDewpointWater temp
2017-Sep-25 01:37N 34°59' W 012°34'2 5.2
2017-Sep-25 01:18N 35°00' W 012°32'46 5.8
2017-Sep-24 17:20N 35°24' W 011°44'2 6.0
2017-Sep-24 16:56N 35°25' W 011°41'13 5.8
2017-Sep-24 14:41N 35°32' W 011°28'10 6.4
2017-Sep-24 13:09N 35°37' W 011°17'1 6.7
2017-Sep-24 13:00N 35°37' W 011°16'7 6.2
2017-Sep-24 11:48N 35°41' W 011°08'57 5.9
2017-Sep-24 02:03N 36°11' W 010°08'0 5.6
2017-Sep-24 02:00N 36°12' W 010°08'3 5.6
2017-Sep-24 01:29N 36°13' W 010°05'3 5.5
2017-Sep-24 01:00N 36°15' W 010°03'4 5.1
2017-Sep-24 00:16N 36°17' W 009°59'16 7.1
2017-Sep-23 22:04N 36°24' W 009°41'0 7.2
2017-Sep-23 22:00N 36°24' W 009°41'4 7.7
2017-Sep-23 21:30N 36°26' W 009°37'4 8.1
2017-Sep-23 21:00N 36°28' W 009°32'  
2017-Sep-19 12:55N 37°05' W 008°15'3 6.1
2017-Sep-19 12:30N 37°04' W 008°18'3 6.2
2017-Sep-19 12:00N 37°04' W 008°22'3 6.3
2017-Sep-19 11:30N 37°04' W 008°26'3 6.2
2017-Sep-19 11:00N 37°04' W 008°30'3 6.3
2017-Sep-19 10:30N 37°05' W 008°34'3 6.1
2017-Sep-19 10:00N 37°05' W 008°38'2 4.6
2017-Sep-19 09:29N 37°06' W 008°40'0 0.0
2017-Sep-18 13:59N 37°07' W 008°41'0 0.3
2017-Sep-18 13:28N 37°06' W 008°40'0 0.2
2017-Sep-18 13:00N 37°06' W 008°40'1 2.9
2017-Sep-18 12:29N 37°05' W 008°39'3 5.7
2017-Sep-18 12:00N 37°04' W 008°42'2 4.9
2017-Sep-18 11:30N 37°03' W 008°45'3 5.7
2017-Sep-18 11:00N 37°02' W 008°48'25 1.1
2017-Sep-17 11:57N 37°26' W 008°57'14 5.9
2017-Sep-17 09:32N 37°40' W 008°55'0 5.9
2017-Sep-17 09:27N 37°41' W 008°55'3 5.9
2017-Sep-17 09:00N 37°43' W 008°54'3 6.0
2017-Sep-17 08:30N 37°46' W 008°54'3 6.0
2017-Sep-17 08:00N 37°49' W 008°53'3 6.0
2017-Sep-17 07:30N 37°52' W 008°52'3 5.6
2017-Sep-17 07:00N 37°55' W 008°52'2 3.9
2017-Sep-17 06:30N 37°57' W 008°52'0 0.0
2017-Sep-15 16:36N 37°57' W 008°52'0 0.0
2017-Sep-15 16:30N 37°57' W 008°52'  
Track history (hours):
 
Tides and Currents Weather Stations Pressure Air Temp Water Temp Dewpoint Dewpoint Depression Visibility Wind Speed Wind Dir Waves Ship Positions

Pesadilla

Last reported at 2017-Sep-25 01:37 UTC. Time now 2017-Oct-18 12:56 UTC.
Position N 34°59' W 012°34'.
Warning: this ship's position is 23 days out of date.

Length 13 m.

Type: Pleasure craft. MMSI: 211392360.

Date/timePositionNaut miles runAvg speedWind from/ knotsBaromVisibWave heightAir tempDewpointWater temp
2017-Sep-25 01:37N 34°59' W 012°34'2 5.2
2017-Sep-25 01:18N 35°00' W 012°32'46 5.8
2017-Sep-24 17:20N 35°24' W 011°44'2 6.0
2017-Sep-24 16:56N 35°25' W 011°41'13 5.8
2017-Sep-24 14:41N 35°32' W 011°28'10 6.4
2017-Sep-24 13:09N 35°37' W 011°17'1 6.7
2017-Sep-24 13:00N 35°37' W 011°16'7 6.2
2017-Sep-24 11:48N 35°41' W 011°08'57 5.9
2017-Sep-24 02:03N 36°11' W 010°08'0 5.6
2017-Sep-24 02:00N 36°12' W 010°08'3 5.6
2017-Sep-24 01:29N 36°13' W 010°05'3 5.5
2017-Sep-24 01:00N 36°15' W 010°03'4 5.1
2017-Sep-24 00:16N 36°17' W 009°59'16 7.1
2017-Sep-23 22:04N 36°24' W 009°41'0 7.2
2017-Sep-23 22:00N 36°24' W 009°41'4 7.7
2017-Sep-23 21:30N 36°26' W 009°37'4 8.1
2017-Sep-23 21:00N 36°28' W 009°32'  
2017-Sep-19 12:55N 37°05' W 008°15'3 6.1
2017-Sep-19 12:30N 37°04' W 008°18'3 6.2
2017-Sep-19 12:00N 37°04' W 008°22'3 6.3
2017-Sep-19 11:30N 37°04' W 008°26'3 6.2
2017-Sep-19 11:00N 37°04' W 008°30'3 6.3
2017-Sep-19 10:30N 37°05' W 008°34'3 6.1
2017-Sep-19 10:00N 37°05' W 008°38'2 4.6
2017-Sep-19 09:29N 37°06' W 008°40'0 0.0
2017-Sep-18 13:59N 37°07' W 008°41'0 0.3
2017-Sep-18 13:28N 37°06' W 008°40'0 0.2
2017-Sep-18 13:00N 37°06' W 008°40'1 2.9
2017-Sep-18 12:29N 37°05' W 008°39'3 5.7
2017-Sep-18 12:00N 37°04' W 008°42'2 4.9
2017-Sep-18 11:30N 37°03' W 008°45'3 5.7
2017-Sep-18 11:00N 37°02' W 008°48'25 1.1
2017-Sep-17 11:57N 37°26' W 008°57'14 5.9
2017-Sep-17 09:32N 37°40' W 008°55'0 5.9
2017-Sep-17 09:27N 37°41' W 008°55'3 5.9
2017-Sep-17 09:00N 37°43' W 008°54'3 6.0
2017-Sep-17 08:30N 37°46' W 008°54'3 6.0
2017-Sep-17 08:00N 37°49' W 008°53'3 6.0
2017-Sep-17 07:30N 37°52' W 008°52'3 5.6
2017-Sep-17 07:00N 37°55' W 008°52'2 3.9
2017-Sep-17 06:30N 37°57' W 008°52'0 0.0
2017-Sep-15 16:36N 37°57' W 008°52'0 0.0
2017-Sep-15 16:30N 37°57' W 008°52'  

Dump ship's entire track history